createdAt,value
2018-09-05T00:01:50.861Z,65.50
2018-09-05T00:04:19.151Z,65.60
2018-09-05T00:06:47.446Z,65.60
2018-09-05T00:09:16.330Z,65.50
2018-09-05T00:11:44.564Z,65.50
2018-09-05T00:14:12.786Z,65.50
2018-09-05T00:16:41.130Z,65.50
2018-09-05T00:19:09.537Z,66.20
2018-09-05T00:21:37.830Z,65.40
2018-09-05T00:24:07.062Z,65.50
2018-09-05T00:26:35.282Z,65.40
2018-09-05T00:29:03.550Z,65.50
2018-09-05T00:31:32.247Z,65.40
2018-09-05T00:34:00.507Z,65.30
2018-09-05T00:36:28.747Z,65.30
2018-09-05T00:38:57.276Z,65.30
2018-09-05T00:41:25.502Z,65.30
2018-09-05T00:43:53.727Z,65.20
2018-09-05T00:46:22.421Z,65.30
2018-09-05T00:48:50.650Z,65.30
2018-09-05T00:51:18.854Z,65.20
2018-09-05T00:53:47.114Z,65.30
2018-09-05T00:56:15.414Z,65.20
2018-09-05T00:58:43.682Z,65.20
2018-09-05T01:01:11.974Z,65.10
2018-09-05T01:03:40.333Z,65.10
2018-09-05T01:06:08.548Z,65.10
2018-09-05T01:08:37.530Z,65.10
2018-09-05T01:11:05.763Z,65.10
2018-09-05T01:13:33.978Z,65.10
2018-09-05T01:16:02.395Z,65.10
2018-09-05T01:18:30.695Z,65.10
2018-09-05T01:20:58.937Z,65.10
2018-09-05T01:23:27.235Z,65.10
2018-09-05T01:25:56.186Z,65.00
2018-09-05T01:28:24.439Z,65.00
2018-09-05T01:30:53.858Z,65.00
2018-09-05T01:33:22.088Z,65.00
2018-09-05T01:35:54.915Z,64.90
2018-09-05T01:38:23.134Z,65.00
2018-09-05T01:40:51.917Z,65.00
2018-09-05T01:43:20.298Z,65.00
2018-09-05T01:45:48.514Z,65.00
2018-09-05T01:48:16.823Z,65.00
2018-09-05T01:50:45.310Z,64.90
2018-09-05T01:53:14.057Z,64.90
2018-09-05T01:55:42.398Z,64.90
2018-09-05T01:58:10.949Z,64.90
2018-09-05T02:00:39.175Z,64.90
2018-09-05T02:03:07.422Z,64.90
2018-09-05T02:05:37.717Z,65.50
2018-09-05T02:08:05.955Z,64.90
2018-09-05T02:10:34.245Z,64.80
2018-09-05T02:13:02.965Z,64.80
2018-09-05T02:15:31.206Z,64.80
2018-09-05T02:17:59.542Z,64.80
2018-09-05T02:20:27.994Z,64.80
2018-09-05T02:22:56.392Z,64.80
2018-09-05T02:25:24.689Z,64.80
2018-09-05T02:27:53.474Z,64.80
2018-09-05T02:30:21.884Z,64.80
2018-09-05T02:32:50.177Z,64.80
2018-09-05T02:35:18.678Z,64.80
2018-09-05T02:37:46.956Z,64.80
2018-09-05T02:40:15.315Z,64.70
2018-09-05T02:42:43.566Z,64.80
2018-09-05T02:45:11.875Z,64.70
2018-09-05T02:47:40.102Z,64.70
2018-09-05T02:50:08.648Z,64.70
2018-09-05T02:52:36.877Z,64.70
2018-09-05T02:55:05.163Z,64.60
2018-09-05T02:57:33.579Z,64.70
2018-09-05T03:00:01.870Z,64.70
2018-09-05T03:02:30.240Z,64.60
2018-09-05T03:04:58.814Z,64.70
2018-09-05T03:07:27.821Z,64.50
2018-09-05T03:09:56.033Z,64.60
2018-09-05T03:12:25.282Z,64.60
2018-09-05T03:14:53.573Z,64.60
2018-09-05T03:17:21.986Z,64.50
2018-09-05T03:19:50.630Z,64.60
2018-09-05T03:22:18.934Z,64.50
2018-09-05T03:24:47.162Z,64.50
2018-09-05T03:27:16.388Z,65.00
2018-09-05T03:29:44.738Z,64.50
2018-09-05T03:32:13.047Z,64.40
2018-09-05T03:34:41.622Z,64.40
2018-09-05T03:37:10.059Z,64.50
2018-09-05T03:39:38.297Z,64.40
2018-09-05T03:42:07.703Z,64.40
2018-09-05T03:44:35.925Z,64.40
2018-09-05T03:47:04.158Z,64.40
2018-09-05T03:49:33.026Z,64.30
2018-09-05T03:52:01.288Z,64.30
2018-09-05T03:54:29.461Z,64.20
2018-09-05T03:56:57.809Z,64.30
2018-09-05T03:59:26.033Z,64.30
2018-09-05T04:01:54.338Z,64.30
2018-09-05T04:04:22.691Z,64.30
2018-09-05T04:06:50.927Z,64.30
2018-09-05T04:09:19.898Z,64.20
2018-09-05T04:11:49.248Z,64.20
2018-09-05T04:14:17.493Z,64.20
2018-09-05T04:16:45.799Z,64.20
2018-09-05T04:19:14.153Z,64.20
2018-09-05T04:21:42.438Z,64.20
2018-09-05T04:24:10.836Z,64.20
2018-09-05T04:26:39.834Z,64.20
2018-09-05T04:29:08.048Z,64.20
2018-09-05T04:31:36.278Z,64.10
2018-09-05T04:34:04.869Z,64.20
2018-09-05T04:36:33.166Z,64.20
2018-09-05T04:39:01.401Z,64.20
2018-09-05T04:41:29.910Z,64.20
2018-09-05T04:43:58.203Z,64.10
2018-09-05T04:46:26.519Z,64.10
2018-09-05T04:48:55.246Z,64.10
2018-09-05T04:51:23.630Z,64.00
2018-09-05T04:53:51.927Z,64.00
2018-09-05T04:56:20.637Z,64.00
2018-09-05T04:58:48.867Z,63.90
2018-09-05T05:01:18.110Z,64.20
2018-09-05T05:03:47.371Z,64.20
2018-09-05T05:06:15.667Z,64.50
2018-09-05T05:08:43.890Z,64.60
2018-09-05T05:11:12.155Z,64.60
2018-09-05T05:13:40.379Z,64.90
2018-09-05T05:16:08.707Z,64.90
2018-09-05T05:18:37.337Z,64.90
2018-09-05T05:21:05.568Z,64.90
2018-09-05T05:23:33.804Z,64.90
2018-09-05T05:26:02.590Z,65.00
2018-09-05T05:28:30.815Z,64.80
2018-09-05T05:30:59.034Z,64.80
2018-09-05T05:33:27.921Z,64.80
2018-09-05T05:35:56.215Z,64.90
2018-09-05T05:38:24.535Z,65.60
2018-09-05T05:40:52.961Z,64.90
2018-09-05T05:43:21.171Z,64.90
2018-09-05T05:45:49.394Z,64.90
2018-09-05T05:48:19.726Z,65.00
2018-09-05T05:50:47.951Z,65.00
2018-09-05T05:53:16.174Z,65.00
2018-09-05T05:55:44.665Z,64.90
2018-09-05T05:58:12.878Z,64.90
2018-09-05T06:00:41.138Z,64.90
2018-09-05T06:03:13.155Z,64.90
2018-09-05T06:05:41.450Z,64.80
2018-09-05T06:08:09.762Z,64.90
2018-09-05T06:10:39.041Z,64.80
2018-09-05T06:13:07.258Z,64.80
2018-09-05T06:15:35.530Z,64.80
2018-09-05T06:18:04.354Z,64.80
2018-09-05T06:20:32.502Z,64.80
2018-09-05T06:23:00.708Z,64.70
2018-09-05T06:25:29.102Z,64.80
2018-09-05T06:27:57.620Z,64.70
2018-09-05T06:30:25.945Z,64.80
2018-09-05T06:32:55.006Z,64.70
2018-09-05T06:35:23.226Z,64.70
2018-09-05T06:37:51.534Z,64.70
2018-09-05T06:40:19.847Z,64.70
2018-09-05T06:42:48.077Z,64.70
2018-09-05T06:45:16.361Z,64.70
2018-09-05T06:47:44.587Z,64.60
2018-09-05T06:50:12.852Z,64.60
2018-09-05T06:52:41.063Z,64.60
2018-09-05T06:55:10.166Z,64.60
2018-09-05T06:57:38.418Z,64.60
2018-09-05T07:00:07.110Z,64.50
2018-09-05T07:02:35.775Z,64.60
2018-09-05T07:05:04.556Z,64.50
2018-09-05T07:07:32.861Z,64.60
2018-09-05T07:10:01.427Z,64.60
2018-09-05T07:12:29.605Z,64.60
2018-09-05T07:14:57.918Z,64.50
2018-09-05T07:17:26.678Z,64.30
2018-09-05T07:19:55.096Z,64.80
2018-09-05T07:22:23.329Z,65.50
2018-09-05T07:24:52.248Z,64.80
2018-09-05T07:27:20.366Z,64.80
2018-09-05T07:29:48.775Z,65.20
2018-09-05T07:32:17.435Z,65.10
2018-09-05T07:34:45.909Z,65.10
2018-09-05T07:37:14.150Z,65.10
2018-09-05T07:39:42.393Z,65.30
2018-09-05T07:42:10.633Z,65.40
2018-09-05T07:44:38.855Z,65.50
2018-09-05T07:47:07.677Z,65.50
2018-09-05T07:49:36.024Z,65.90
2018-09-05T07:52:04.364Z,66.60
2018-09-05T07:54:33.583Z,66.00
2018-09-05T07:57:01.807Z,65.70
2018-09-05T07:59:30.164Z,66.60
2018-09-05T08:01:59.064Z,67.10
2018-09-05T08:04:29.194Z,68.00
2018-09-05T08:06:58.494Z,68.30
2018-09-05T08:09:26.757Z,68.30
2018-09-05T08:11:54.974Z,68.00
2018-09-05T08:14:23.838Z,68.70
2018-09-05T08:16:52.068Z,69.90
2018-09-05T08:19:20.414Z,71.00
2018-09-05T08:21:49.382Z,70.70
2018-09-05T08:24:18.202Z,70.50
2018-09-05T08:26:46.462Z,69.90
2018-09-05T08:29:15.168Z,69.40
2018-09-05T08:31:43.423Z,69.20
2018-09-05T08:34:11.797Z,68.90
2018-09-05T08:36:40.731Z,69.40
2018-09-05T08:39:10.835Z,69.50
2018-09-05T08:41:39.164Z,69.60
2018-09-05T08:44:08.029Z,70.00
2018-09-05T08:46:36.492Z,69.40
2018-09-05T08:49:04.782Z,69.20
2018-09-05T08:51:33.336Z,68.90
2018-09-05T08:54:01.558Z,68.70
2018-09-05T08:56:30.033Z,68.60
2018-09-05T08:58:58.850Z,68.50
2018-09-05T09:01:27.177Z,69.00
2018-09-05T09:03:55.422Z,69.40
2018-09-05T09:06:23.900Z,70.80
2018-09-05T09:08:53.222Z,70.70
2018-09-05T09:11:21.628Z,70.70
2018-09-05T09:13:50.195Z,70.20
2018-09-05T09:16:18.502Z,70.90
2018-09-05T09:18:46.913Z,70.30
2018-09-05T09:21:16.224Z,70.70
2018-09-05T09:23:44.466Z,71.00
2018-09-05T09:26:12.708Z,71.00
2018-09-05T09:28:41.464Z,71.00
2018-09-05T09:31:09.706Z,70.70
2018-09-05T09:33:38.003Z,70.30
2018-09-05T09:36:06.407Z,69.90
2018-09-05T09:38:34.632Z,69.90
2018-09-05T09:41:02.885Z,69.90
2018-09-05T09:43:32.084Z,69.80
2018-09-05T09:46:00.465Z,69.90
2018-09-05T09:48:28.685Z,69.70
2018-09-05T09:50:57.458Z,69.40
2018-09-05T09:53:25.696Z,69.40
2018-09-05T09:55:53.914Z,69.50
2018-09-05T09:58:22.531Z,69.40
2018-09-05T10:00:56.198Z,69.40
2018-09-05T10:03:30.640Z,69.40
2018-09-05T10:07:03.709Z,69.30
2018-09-05T10:09:37.723Z,69.40
2018-09-05T10:12:11.647Z,69.10
2018-09-05T10:14:44.241Z,69.00
2018-09-05T10:17:17.879Z,69.00
2018-09-05T10:19:52.035Z,68.80
2018-09-05T10:22:20.276Z,68.90
2018-09-05T10:24:48.567Z,68.50
2018-09-05T10:27:17.207Z,68.20
2018-09-05T10:29:45.443Z,68.00
2018-09-05T10:32:13.668Z,67.50
2018-09-05T10:34:42.653Z,68.10
2018-09-05T10:37:10.919Z,69.10
2018-09-05T10:39:39.234Z,69.50
2018-09-05T10:42:07.847Z,69.40
2018-09-05T10:44:36.288Z,69.20
2018-09-05T10:47:04.549Z,69.10
2018-09-05T10:49:32.822Z,69.20
2018-09-05T10:52:06.349Z,69.40
2018-09-05T10:54:35.212Z,69.00
2018-09-05T10:57:04.138Z,68.40
2018-09-05T10:59:32.369Z,68.10
2018-09-05T11:02:01.345Z,68.70
2018-09-05T11:04:32.509Z,68.70
2018-09-05T11:07:01.087Z,69.20
2018-09-05T11:09:29.302Z,69.40
2018-09-05T11:11:57.875Z,69.80
2018-09-05T11:14:26.326Z,69.50
2018-09-05T11:16:54.564Z,70.40
2018-09-05T11:19:22.854Z,69.40
2018-09-05T11:21:51.781Z,68.60
2018-09-05T11:24:20.117Z,67.00
2018-09-05T11:26:48.338Z,69.20
2018-09-05T11:29:16.798Z,70.60
2018-09-05T11:31:45.130Z,70.60
2018-09-05T11:34:13.437Z,71.80
2018-09-05T11:36:41.953Z,71.30
2018-09-05T11:39:12.112Z,71.50
2018-09-05T11:41:40.498Z,72.10
2018-09-05T11:44:08.777Z,72.20
2018-09-05T11:46:37.778Z,73.00
2018-09-05T11:49:06.519Z,73.20
2018-09-05T11:51:34.822Z,73.50
2018-09-05T11:54:03.130Z,72.70
2018-09-05T11:56:31.657Z,72.80
2018-09-05T11:58:59.888Z,72.50
2018-09-05T12:01:28.233Z,70.60
2018-09-05T12:03:57.098Z,71.20
2018-09-05T12:06:25.401Z,71.30
2018-09-05T12:08:53.793Z,71.90
2018-09-05T12:11:24.191Z,72.90
2018-09-05T12:13:52.504Z,72.20
2018-09-05T12:16:20.734Z,71.90
2018-09-05T12:18:49.726Z,72.20
2018-09-05T12:21:18.042Z,72.80
2018-09-05T12:23:46.364Z,73.20
2018-09-05T12:26:15.687Z,73.40
2018-09-05T12:28:43.946Z,72.70
2018-09-05T12:31:12.181Z,72.70
2018-09-05T12:33:40.571Z,72.20
2018-09-05T12:36:08.821Z,71.40
2018-09-05T12:38:37.167Z,71.50
2018-09-05T12:41:06.064Z,70.90
2018-09-05T12:43:34.290Z,70.40
2018-09-05T12:46:02.738Z,70.30
2018-09-05T12:48:33.967Z,69.80
2018-09-05T12:51:02.318Z,69.70
2018-09-05T12:53:30.546Z,69.40
2018-09-05T12:55:59.006Z,69.30
2018-09-05T12:58:27.250Z,68.90
2018-09-05T13:00:55.510Z,68.50
2018-09-05T13:03:24.375Z,68.40
2018-09-05T13:05:52.595Z,68.90
2018-09-05T13:08:20.847Z,68.00
2018-09-05T13:10:49.494Z,67.80
2018-09-05T13:13:18.597Z,68.30
2018-09-05T13:15:46.866Z,67.80
2018-09-05T13:18:15.342Z,67.90
2018-09-05T13:20:43.579Z,68.00
2018-09-05T13:23:11.987Z,68.20
2018-09-05T13:25:40.584Z,68.20
2018-09-05T13:28:08.974Z,68.10
2018-09-05T13:30:37.291Z,67.80
2018-09-05T13:33:05.877Z,67.50
2018-09-05T13:35:34.083Z,67.50
2018-09-05T13:38:02.488Z,67.70
2018-09-05T13:40:31.262Z,67.30
2018-09-05T13:42:59.498Z,67.10
2018-09-05T13:45:27.760Z,67.10
2018-09-05T13:47:56.297Z,67.30
2018-09-05T13:50:24.530Z,67.60
2018-09-05T13:52:52.786Z,68.10
2018-09-05T13:55:21.051Z,67.70
2018-09-05T13:57:49.298Z,67.40
2018-09-05T14:00:17.688Z,67.30
2018-09-05T14:02:47.159Z,67.30
2018-09-05T14:05:18.662Z,67.50
2018-09-05T14:07:46.932Z,67.70
2018-09-05T14:10:16.446Z,68.00
2018-09-05T14:12:46.504Z,68.10
2018-09-05T14:15:15.647Z,68.30
2018-09-05T14:17:45.070Z,68.30
2018-09-05T14:20:13.508Z,68.20
2018-09-05T14:22:41.826Z,68.10
2018-09-05T14:25:10.165Z,67.60
2018-09-05T14:27:38.491Z,67.30
2018-09-05T14:30:06.733Z,66.70
2018-09-05T14:32:35.006Z,67.00
2018-09-05T14:35:03.271Z,65.80
2018-09-05T14:37:31.683Z,65.40
2018-09-05T14:40:00.502Z,65.10
2018-09-05T14:42:28.706Z,65.10
2018-09-05T14:44:56.948Z,64.90
2018-09-05T14:47:25.610Z,65.10
2018-09-05T14:49:53.858Z,65.20
2018-09-05T14:52:22.102Z,65.50
2018-09-05T14:54:50.944Z,66.10
2018-09-05T14:57:19.199Z,65.60
2018-09-05T14:59:47.523Z,66.00
2018-09-05T15:02:16.895Z,66.20
2018-09-05T15:04:45.124Z,66.70
2018-09-05T15:07:13.439Z,67.00
2018-09-05T15:09:42.548Z,67.10
2018-09-05T15:12:10.806Z,66.90
2018-09-05T15:14:39.050Z,66.80
2018-09-05T15:17:08.178Z,66.80
2018-09-05T15:19:36.506Z,66.80
2018-09-05T15:22:04.739Z,66.80
2018-09-05T15:24:33.859Z,66.60
2018-09-05T15:27:02.108Z,66.20
2018-09-05T15:29:30.352Z,65.60
2018-09-05T15:31:58.776Z,65.90
2018-09-05T15:34:27.027Z,64.80
2018-09-05T15:36:55.292Z,64.70
2018-09-05T15:39:23.647Z,64.50
2018-09-05T15:41:51.854Z,64.30
2018-09-05T15:44:20.084Z,64.10
2018-09-05T15:46:48.668Z,64.10
2018-09-05T15:49:16.942Z,63.70
2018-09-05T15:51:45.155Z,63.70
2018-09-05T15:54:14.091Z,63.50
2018-09-05T15:56:42.450Z,63.70
2018-09-05T15:59:10.693Z,63.80
2018-09-05T16:01:39.323Z,63.80
2018-09-05T16:04:07.595Z,63.90
2018-09-05T16:06:36.054Z,63.50
2018-09-05T16:09:07.136Z,63.70
2018-09-05T16:11:35.683Z,63.90
2018-09-05T16:14:03.970Z,63.70
2018-09-05T16:16:33.090Z,64.40
2018-09-05T16:19:03.110Z,63.90
2018-09-05T16:21:31.526Z,63.90
2018-09-05T16:23:59.963Z,63.90
2018-09-05T16:26:28.210Z,63.90
2018-09-05T16:28:56.451Z,63.80
2018-09-05T16:31:26.511Z,63.70
2018-09-05T16:33:54.766Z,63.70
2018-09-05T16:36:23.489Z,63.70
2018-09-05T16:38:52.135Z,63.70
2018-09-05T16:41:20.339Z,63.80
2018-09-05T16:43:48.740Z,63.70
2018-09-05T16:46:17.040Z,63.60
2018-09-05T16:48:45.444Z,63.60
2018-09-05T16:51:13.678Z,63.70
2018-09-05T16:53:42.564Z,63.70
2018-09-05T16:56:10.811Z,63.60
2018-09-05T16:58:39.226Z,63.70
2018-09-05T17:01:08.215Z,63.50
2018-09-05T17:03:40.535Z,63.40
2018-09-05T17:06:08.964Z,63.20
2018-09-05T17:08:37.231Z,63.30
2018-09-05T17:11:05.804Z,63.30
2018-09-05T17:13:34.315Z,63.20
2018-09-05T17:16:02.679Z,63.40
2018-09-05T17:18:31.634Z,63.60
2018-09-05T17:21:00.792Z,63.80
2018-09-05T17:23:29.231Z,63.90
2018-09-05T17:25:57.483Z,64.40
2018-09-05T17:28:25.881Z,64.50
2018-09-05T17:30:54.052Z,64.70
2018-09-05T17:33:22.398Z,64.40
2018-09-05T17:35:51.060Z,65.10
2018-09-05T17:38:19.700Z,65.50
2018-09-05T17:40:47.964Z,65.60
2018-09-05T17:43:17.319Z,66.20
2018-09-05T17:45:45.595Z,67.50
2018-09-05T17:48:13.942Z,68.30
2018-09-05T17:50:42.550Z,68.30
2018-09-05T17:53:10.828Z,68.30
2018-09-05T17:55:39.143Z,68.80
2018-09-05T17:58:07.591Z,68.20
2018-09-05T18:00:35.834Z,66.40
2018-09-05T18:03:04.066Z,67.60
2018-09-05T18:05:32.934Z,69.60
2018-09-05T18:08:01.196Z,70.90
2018-09-05T18:10:29.514Z,70.50
2018-09-05T18:12:58.653Z,70.50
2018-09-05T18:15:26.927Z,71.30
2018-09-05T18:17:55.171Z,69.40
2018-09-05T18:20:24.756Z,69.30
2018-09-05T18:22:53.102Z,68.50
2018-09-05T18:25:21.384Z,68.10
2018-09-05T18:27:50.621Z,67.90
2018-09-05T18:30:18.944Z,67.90
2018-09-05T18:32:47.278Z,67.80
2018-09-05T18:35:16.622Z,67.80
2018-09-05T18:37:44.941Z,68.20
2018-09-05T18:40:13.259Z,68.30
2018-09-05T18:42:42.102Z,68.50
2018-09-05T18:45:10.432Z,68.20
2018-09-05T18:47:38.698Z,68.10
2018-09-05T18:50:06.999Z,68.00
2018-09-05T18:52:35.418Z,67.90
2018-09-05T18:55:03.768Z,67.90
2018-09-05T18:57:32.539Z,67.80
2018-09-05T19:00:00.869Z,67.70
2018-09-05T19:02:29.237Z,67.70
2018-09-05T19:04:58.134Z,67.60
2018-09-05T19:07:26.478Z,67.60
2018-09-05T19:09:54.754Z,67.60
2018-09-05T19:12:23.051Z,67.80
2018-09-05T19:14:51.331Z,67.60
2018-09-05T19:17:19.586Z,67.70
2018-09-05T19:19:48.427Z,67.80
2018-09-05T19:22:17.656Z,67.50
2018-09-05T19:24:45.893Z,67.60
2018-09-05T19:27:14.202Z,67.50
2018-09-05T19:29:42.595Z,67.60
2018-09-05T19:32:10.847Z,67.50
2018-09-05T19:34:39.404Z,67.50
2018-09-05T19:37:07.998Z,67.40
2018-09-05T19:39:36.335Z,67.50
2018-09-05T19:42:04.947Z,67.30
2018-09-05T19:44:33.204Z,67.40
2018-09-05T19:47:01.690Z,67.30
2018-09-05T19:49:30.913Z,67.20
2018-09-05T19:51:59.168Z,67.80
2018-09-05T19:54:28.236Z,67.30
2018-09-05T19:56:57.062Z,67.20
2018-09-05T19:59:25.560Z,67.30
2018-09-05T20:01:53.802Z,67.20
2018-09-05T20:04:23.708Z,67.10
2018-09-05T20:06:52.330Z,67.30
2018-09-05T20:09:20.588Z,67.10
2018-09-05T20:11:49.018Z,67.10
2018-09-05T20:14:17.271Z,67.10
2018-09-05T20:16:45.926Z,67.10
2018-09-05T20:19:17.200Z,67.10
2018-09-05T20:21:45.434Z,67.10
2018-09-05T20:24:14.278Z,67.10
2018-09-05T20:26:42.948Z,67.10
2018-09-05T20:29:11.218Z,67.10
2018-09-05T20:31:39.474Z,67.10
2018-09-05T20:34:07.766Z,67.10
2018-09-05T20:36:36.063Z,67.10
2018-09-05T20:39:07.978Z,67.10
2018-09-05T20:41:37.535Z,67.10
2018-09-05T20:44:05.791Z,67.10
2018-09-05T20:46:34.038Z,67.10
2018-09-05T20:49:02.454Z,67.20
2018-09-05T20:51:30.785Z,67.20
2018-09-05T20:53:59.068Z,67.10
2018-09-05T20:56:27.695Z,67.10
2018-09-05T20:58:55.926Z,67.10
2018-09-05T21:01:24.199Z,66.90
2018-09-05T21:03:55.297Z,67.10
2018-09-05T21:06:23.524Z,67.00
2018-09-05T21:08:51.766Z,66.90
2018-09-05T21:11:20.796Z,66.90
2018-09-05T21:13:49.055Z,66.90
2018-09-05T21:16:17.651Z,66.90
2018-09-05T21:18:46.008Z,66.90
2018-09-05T21:21:14.242Z,66.80
2018-09-05T21:23:42.483Z,66.70
2018-09-05T21:26:12.297Z,66.70
2018-09-05T21:28:40.535Z,66.90
2018-09-05T21:31:08.916Z,66.60
2018-09-05T21:33:37.119Z,66.70
2018-09-05T21:36:05.355Z,67.50
2018-09-05T21:38:33.699Z,66.60
2018-09-05T21:41:02.054Z,66.60
2018-09-05T21:43:30.278Z,66.60
2018-09-05T21:45:58.501Z,66.50
2018-09-05T21:48:27.958Z,66.60
2018-09-05T21:50:56.179Z,66.60
2018-09-05T21:53:24.431Z,66.50
2018-09-05T21:55:52.698Z,66.50
2018-09-05T21:58:20.919Z,66.50
2018-09-05T22:00:49.139Z,66.50
2018-09-05T22:03:17.621Z,66.90
2018-09-05T22:05:45.866Z,66.40
2018-09-05T22:08:14.178Z,66.40
2018-09-05T22:10:43.479Z,66.50
2018-09-05T22:13:11.716Z,66.40
2018-09-05T22:15:45.182Z,66.30
2018-09-05T22:18:13.421Z,66.30
2018-09-05T22:20:41.639Z,66.30
2018-09-05T22:23:10.484Z,66.30
2018-09-05T22:25:38.719Z,66.30
2018-09-05T22:28:07.521Z,66.20
2018-09-05T22:30:35.773Z,66.20
2018-09-05T22:33:04.263Z,66.20
2018-09-05T22:35:32.591Z,66.20
2018-09-05T22:38:00.878Z,66.20
2018-09-05T22:40:31.251Z,66.10
2018-09-05T22:43:12.679Z,66.10
2018-09-05T22:45:52.399Z,66.10
2018-09-05T22:50:46.530Z,66.10
2018-09-05T22:53:32.464Z,66.20
2018-09-05T22:56:23.117Z,66.10
2018-09-05T22:59:02.775Z,66.10
2018-09-05T23:02:50.304Z,66.10
2018-09-05T23:06:38.646Z,66.00
2018-09-05T23:09:08.505Z,66.10
2018-09-05T23:11:58.283Z,66.10
2018-09-05T23:14:38.701Z,66.10
2018-09-05T23:17:18.618Z,66.00
2018-09-05T23:20:25.331Z,66.00
2018-09-05T23:23:04.930Z,66.00
2018-09-05T23:25:33.767Z,66.00
2018-09-05T23:28:01.982Z,66.00
2018-09-05T23:30:31.059Z,66.00
2018-09-05T23:32:59.322Z,66.00
2018-09-05T23:35:27.627Z,65.90
2018-09-05T23:37:55.866Z,65.90
2018-09-05T23:40:24.113Z,66.00
2018-09-05T23:42:52.333Z,65.90
2018-09-05T23:45:20.733Z,66.00
2018-09-05T23:47:49.350Z,65.90
2018-09-05T23:50:17.576Z,66.00
2018-09-05T23:52:45.870Z,65.90
2018-09-05T23:55:14.522Z,65.90
2018-09-05T23:57:42.761Z,65.90
